Fosston, MN

1:24 PM CDT on August 21, 2017 (GMT -0500)
Fosston Municipal

Weather History for KFSE - November, 2010

Change the Weather History Date:

Friday, November 5, 2010

  Actual Average Record
Temperature  
Mean Temperature 32 °F -  
Max Temperature 44 °F 40 °F 73 °F (2016)
Min Temperature 19 °F 24 °F -4 °F (1951)
Degree Days  
Heating Degree Days 34    
Moisture  
Dew Point 25 °F    
Average Humidity 82    
Maximum Humidity 100    
Minimum Humidity 53    
Precipitation  
Precipitation 0.00 in - - ()
Sea Level Pressure  
Sea Level Pressure 30.13 in    
Wind  
Wind Speed 3 mph (South)    
Max Wind Speed 14 mph    
Max Gust Speed -    
Visibility 10 miles    
Events      
Averages and records for this station are not official NWS values.
T = Trace of Precipitation, MM = Missing Value Source: NWS Daily Summary

Daily Weather History Graph

Daily Weather History Graph

Search for Another Location

Airport or City:

Trip Planner

Search our weather history database for the weather conditions in past years. The results will help you decide how hot, cold, wet, or windy it might be!

Date:

Astronomy

Nov. 05, 2010 Rise Set
Actual Time 8:13 AM CDT 5:59 PM CDT
Civil Twilight 7:40 AM CDT 6:32 PM CDT
Nautical Twilight 7:03 AM CDT 7:08 PM CDT
Astronomical Twilight 6:27 AM CDT 7:44 PM CDT
Moon 7:42 AM CDT (11/5) 5:18 PM CDT (11/5)
Length of Visible Light 10h 51m
Length of Day
9h 46m
Waning Crescent, 0% of the Moon is Illuminated
Nov 5
Waning Crescent
Nov 5
New
Nov 13
First Quarter
Nov 21
Full
Nov 28
Last Quarter

Hourly Weather History & Observations

Time (CDT) Temp. Windchill Dew Point Humidity Pressure Visibility Wind Dir Wind Speed Gust Speed Precip Events Conditions
12:13 AM 24.8 °F - 21.2 °F 86% 30.21 in 10.0 mi Calm Calm - N/A   Clear
12:33 AM 23.0 °F - 21.2 °F 93% 30.21 in 10.0 mi Calm Calm - N/A   Clear
12:53 AM 23.0 °F - 21.2 °F 93% 30.21 in 10.0 mi Calm Calm - N/A   Clear
1:13 AM 23.0 °F - 21.2 °F 93% 30.21 in 10.0 mi Calm Calm - N/A   Clear
1:33 AM 21.2 °F - 21.2 °F 100% 30.20 in 10.0 mi Calm Calm - N/A   Clear
1:52 AM 21.2 °F - 19.4 °F 93% 30.20 in 10.0 mi Calm Calm - N/A   Clear
2:13 AM 21.2 °F - 19.4 °F 93% 30.20 in 10.0 mi Calm Calm - N/A   Clear
2:33 AM 21.2 °F - 19.4 °F 93% 30.20 in 10.0 mi Calm Calm - N/A   Clear
2:53 AM 21.2 °F - 19.4 °F 93% 30.20 in 10.0 mi Calm Calm - N/A   Clear
3:13 AM 21.2 °F - 19.4 °F 93% 30.20 in 10.0 mi Calm Calm - N/A   Clear
3:33 AM 21.2 °F - 19.4 °F 93% 30.19 in 10.0 mi Calm Calm - N/A   Clear
3:53 AM 21.2 °F - 19.4 °F 93% 30.18 in 10.0 mi Calm Calm - N/A   Clear
4:13 AM 21.2 °F - 19.4 °F 93% 30.18 in 10.0 mi Calm Calm - N/A   Clear
4:33 AM 21.2 °F - 19.4 °F 93% 30.18 in 10.0 mi Calm Calm - N/A   Clear
4:53 AM 21.2 °F - 19.4 °F 93% 30.18 in 10.0 mi Calm Calm - N/A   Clear
5:13 AM 21.2 °F - 19.4 °F 93% 30.17 in 10.0 mi Calm Calm - N/A   Clear
5:33 AM 19.4 °F - 17.6 °F 93% 30.18 in 10.0 mi Calm Calm - N/A   Clear
5:53 AM 19.4 °F - 17.6 °F 93% 30.17 in 10.0 mi Calm Calm - N/A   Clear
6:13 AM 21.2 °F - 19.4 °F 93% 30.17 in 10.0 mi Calm Calm - N/A   Clear
6:33 AM 21.2 °F - 19.4 °F 93% 30.16 in 10.0 mi Calm Calm - N/A   Clear
6:53 AM 21.2 °F 14.9 °F 19.4 °F 93% 30.16 in 10.0 mi South 4.6 mph - N/A   Clear
7:13 AM 21.2 °F 14.9 °F 19.4 °F 93% 30.16 in 10.0 mi South 4.6 mph - N/A   Clear
7:33 AM 21.2 °F 13.6 °F 19.4 °F 93% 30.16 in 10.0 mi South 5.8 mph - N/A   Clear
7:53 AM 21.2 °F 13.6 °F 19.4 °F 93% 30.16 in 10.0 mi South 5.8 mph - N/A   Clear
8:13 AM 21.2 °F 13.6 °F 21.2 °F 100% 30.16 in 10.0 mi South 5.8 mph - N/A   Clear
8:33 AM 21.2 °F 13.6 °F 21.2 °F 100% 30.15 in 7.0 mi South 5.8 mph - N/A   Clear
8:53 AM 21.2 °F 14.9 °F 21.2 °F 100% 30.16 in 7.0 mi South 4.6 mph - N/A   Clear
9:13 AM 26.6 °F 22.6 °F 24.8 °F 93% 30.16 in 7.0 mi South 3.5 mph - N/A   Clear
9:33 AM 26.6 °F - 26.6 °F 100% 30.16 in 5.0 mi Calm Calm - N/A   Clear
9:53 AM 28.4 °F 22.2 °F 28.4 °F 100% 30.15 in 10.0 mi South 5.8 mph - N/A   Clear
10:13 AM 30.2 °F 22.6 °F 28.4 °F 93% 30.14 in 10.0 mi SSW 8.1 mph - N/A   Clear
10:33 AM 32.0 °F 25.6 °F 28.4 °F 87% 30.14 in 10.0 mi SSW 6.9 mph - N/A   Clear
10:53 AM 33.8 °F 27.0 °F 30.2 °F 87% 30.14 in 10.0 mi SSW 8.1 mph - N/A   Clear
11:13 AM 33.8 °F 26.4 °F 28.4 °F 81% 30.14 in 10.0 mi SSW 9.2 mph - N/A   Clear
11:33 AM 37.4 °F 30.3 °F 30.2 °F 75% 30.14 in 10.0 mi SSW 10.4 mph - N/A   Clear
11:53 AM 37.4 °F 30.3 °F 30.2 °F 75% 30.13 in 10.0 mi SSW 10.4 mph - N/A   Clear
12:13 PM 39.2 °F 32.5 °F 30.2 °F 70% 30.13 in 10.0 mi South 10.4 mph - N/A   Clear
12:33 PM 39.2 °F 33.0 °F 30.2 °F 70% 30.12 in 10.0 mi SSW 9.2 mph - N/A   Clear
12:53 PM 39.2 °F 33.0 °F 30.2 °F 70% 30.11 in 10.0 mi SSW 9.2 mph - N/A   Clear
1:13 PM 41.0 °F 34.7 °F 32.0 °F 70% 30.11 in 10.0 mi SSW 10.4 mph - N/A   Clear
1:33 PM 42.8 °F 36.6 °F 33.8 °F 70% 30.10 in 10.0 mi SSW 11.5 mph - N/A   Clear
1:53 PM 42.8 °F 36.2 °F 30.2 °F 61% 30.09 in 10.0 mi South 12.7 mph - N/A   Clear
2:13 PM 42.8 °F 35.8 °F 30.2 °F 61% 30.07 in 10.0 mi SSW 13.8 mph - N/A   Clear
2:33 PM 44.6 °F - 30.2 °F 57% 30.07 in 10.0 mi Calm Calm - N/A   Clear
2:53 PM 44.6 °F 40.2 °F 30.2 °F 57% 30.06 in 10.0 mi SSW 8.1 mph - N/A   Clear
3:13 PM 44.6 °F 38.4 °F 30.2 °F 57% 30.05 in 10.0 mi South 12.7 mph - N/A   Clear
3:33 PM 44.6 °F 38.8 °F 30.2 °F 57% 30.05 in 10.0 mi SSW 11.5 mph - N/A   Clear
3:53 PM 44.6 °F 40.2 °F 30.2 °F 57% 30.04 in 10.0 mi South 8.1 mph - N/A   Clear
4:13 PM 44.6 °F 40.2 °F 28.4 °F 53% 30.05 in 10.0 mi South 8.1 mph - N/A   Clear
4:33 PM 44.6 °F 39.2 °F 28.4 °F 53% 30.04 in 10.0 mi South 10.4 mph - N/A   Clear
4:53 PM 42.8 °F 41.1 °F 28.4 °F 57% 30.04 in 10.0 mi South 3.5 mph - N/A   Clear
5:13 PM 42.8 °F 37.5 °F 26.6 °F 53% 30.03 in 10.0 mi South 9.2 mph - N/A   Clear
5:33 PM 41.0 °F 37.1 °F 28.4 °F 61% 30.02 in 10.0 mi South 5.8 mph - N/A   Clear
5:53 PM 37.4 °F - 26.6 °F 65% 30.02 in 10.0 mi Calm Calm - N/A   Clear
6:13 PM 33.8 °F 27.7 °F 26.6 °F 75% 30.02 in 10.0 mi South 6.9 mph - N/A   Clear
6:33 PM 33.8 °F 27.0 °F 26.6 °F 75% 30.01 in 10.0 mi South 8.1 mph - N/A   Clear
6:53 PM 32.0 °F 25.6 °F 26.6 °F 80% 30.01 in 10.0 mi South 6.9 mph - N/A   Clear
7:13 PM 32.0 °F 24.2 °F 26.6 °F 80% 30.01 in 10.0 mi SSE 9.2 mph - N/A   Clear
7:33 PM 33.8 °F 27.0 °F 26.6 °F 75% 30.00 in 10.0 mi SSE 8.1 mph - N/A   Clear
7:53 PM 33.8 °F 26.4 °F 24.8 °F 70% 29.99 in 10.0 mi SSE 9.2 mph - N/A   Clear
8:13 PM 33.8 °F 26.4 °F 24.8 °F 70% 29.99 in 10.0 mi South 9.2 mph - N/A   Clear
8:33 PM 33.8 °F 25.3 °F 24.8 °F 70% 29.97 in 10.0 mi SSE 11.5 mph - N/A   Clear
8:53 PM 33.8 °F 24.8 °F 24.8 °F 70% 29.96 in 10.0 mi SSE 12.7 mph - N/A   Clear
9:13 PM 33.8 °F 24.8 °F 24.8 °F 70% 29.95 in 10.0 mi SSE 12.7 mph - N/A   Clear
9:33 PM 35.6 °F 27.1 °F 24.8 °F 65% 29.96 in 10.0 mi South 12.7 mph - N/A   Clear
9:53 PM 33.8 °F 24.8 °F 26.6 °F 75% 29.95 in 10.0 mi South 12.7 mph - N/A   Clear
10:13 PM 33.8 °F 25.3 °F 26.6 °F 75% 29.95 in 10.0 mi South 11.5 mph - N/A   Clear
10:33 PM 33.8 °F 25.3 °F 24.8 °F 70% 29.96 in 10.0 mi South 11.5 mph - N/A   Clear
10:53 PM 33.8 °F 25.3 °F 24.8 °F 70% 29.96 in 10.0 mi South 11.5 mph - N/A   Clear
11:13 PM 33.8 °F 24.8 °F 24.8 °F 70% 29.95 in 10.0 mi South 12.7 mph - N/A   Clear
11:33 PM 35.6 °F 26.2 °F 24.8 °F 65% 29.95 in 10.0 mi South 15.0 mph - N/A   Clear
11:53 PM 37.4 °F 27.5 °F 24.8 °F 60% 29.94 in 10.0 mi South 18.4 mph 25.3 mph N/A   Clear